La Aurora International Airport

Airport
ICAO code: 
MGGT
IATA Code: 
GUA
Summary
ICAO Region: 
CARSAM
Territory: 
Location: 
Aurora, Guatemala Department
Serving: 
Guatemala City
Elevation: 
4951 ft
Coordinates: 
Aerial View: 
14° 34' 59.747" N, 90° 31' 38.867" W
Metar
Observation
MGGT 260500Z 00000KT 7000 SKC 17/16 Q1021 A3015 BR
Station
Guatemala Aeropuertola Aurora
Date/Time
2022-01-26 05:00:00
Wind direction
Wind speed
00 kts
Lowest cloud amount
n/a
Temperature
17°C
Dew point
16°C
Humidity
93%
QNH
1021 hPa
Weather condition
n/a

La Aurora International Airport serves Guatemala City, Guatemala.

Climatology

Tropical savannah climate (Köppen climate classification Aw)

Runways

Designator Length Width Surface Rops
1/19 2987 60 ASP Yes/Yes
Airport map: 
Aerial View: 

SKYbrary Partners:

Safety knowledge contributed by: